Time;durP1;ratioP1;P1;durP2;ratioP2;P2;SDS_P1;SDS_P2;PMS_P1;PMS_P2;Temp;Humidity;BMP_temperature;BMP_pressure;BME280_temperature;BME280_humidity;BME280_pressure;Samples;Min_cycle;Max_cycle;Signal;HPM_P1;HPM_P2
2021/06/28 00:00:37;;;;;;;;;8.25;6.25;;;;;22.73;60.67;100225.38;5075392;27;45532;-75
2021/06/28 00:03:02;;;;;;;;;7.00;7.00;;;;;22.75;61.01;100220.78;5052118;28;48152;-76
2021/06/28 00:05:28;;;;;;;;;7.00;6.00;;;;;22.73;61.39;100226.22;5072804;28;45457;-76
2021/06/28 00:07:53;;;;;;;;;8.25;7.00;;;;;;;;5088549;27;45711;-74
2021/06/28 00:10:26;;;;;;;;;4.25;4.25;;;;;22.75;60.88;100229.63;5072989;28;53389;-76
2021/06/28 00:12:52;;;;;;;;;5.50;5.25;;;;;;;;5073032;27;45409;-74
2021/06/28 00:15:27;;;;;;;;;6.00;6.00;;;;;22.73;60.93;100220.91;5072427;28;45378;-74
2021/06/28 00:17:52;;;;;;;;;6.00;5.75;;;;;22.73;60.97;100214.72;5068010;27;45412;-76
2021/06/28 00:20:18;;;;;;;;;5.00;4.00;;;;;22.72;61.53;100216.56;5073866;28;45670;-76
2021/06/28 00:22:45;;;;;;;;;5.75;5.75;;;;;22.72;61.20;100219.22;5074661;27;45636;-74
2021/06/28 00:25:11;;;;;;;;;6.00;6.00;;;;;22.71;61.40;100212.19;5062058;28;45781;-76
2021/06/28 00:27:37;;;;;;;;;5.50;5.25;;;;;22.72;60.90;100215.72;5075232;28;45530;-75
2021/06/28 00:30:06;;;;;;;;;5.75;4.75;;;;;22.72;61.38;100205.06;5068956;28;46614;-75
2021/06/28 00:32:31;;;;;;;;;5.00;5.00;;;;;22.70;60.72;100202.53;5055868;28;46427;-75
2021/06/28 00:34:57;;;;;;;;;6.50;6.50;;;;;22.71;61.26;100196.22;5072713;28;45405;-75
2021/06/28 00:37:22;;;;;;;;;6.00;4.25;;;;;22.70;60.80;100186.53;5073979;28;52153;-75
2021/06/28 00:39:47;;;;;;;;;7.75;6.00;;;;;22.71;61.05;100182.91;5086506;27;58180;-74
2021/06/28 00:42:13;;;;;;;;;7.50;7.25;;;;;22.71;61.29;100176.75;5069985;28;56940;-74
2021/06/28 00:44:38;;;;;;;;;7.25;5.50;;;;;22.72;61.45;100170.44;5072296;28;60124;-74
2021/06/28 00:47:04;;;;;;;;;6.50;6.50;;;;;22.71;60.84;100169.59;5072638;28;45450;-75
2021/06/28 00:49:29;;;;;;;;;8.75;7.00;;;;;22.70;61.17;100156.41;5072128;28;49825;-74
2021/06/28 00:51:56;;;;;;;;;7.00;7.00;;;;;22.70;61.06;100156.41;5072626;28;47031;-74
2021/06/28 00:54:21;;;;;;;;;8.25;6.75;;;;;22.71;61.27;100150.13;5072427;28;45500;-74
2021/06/28 00:56:47;;;;;;;;;6.50;6.50;;;;;22.70;61.23;100151.09;5073639;28;45444;-75
2021/06/28 00:59:12;;;;;;;;;6.00;6.00;;;;;22.70;61.48;100157.25;5072823;28;45597;-75
2021/06/28 01:01:38;;;;;;;;;6.75;6.00;;;;;22.70;60.97;100164.41;5055949;28;47555;-74
2021/06/28 01:04:03;;;;;;;;;8.25;6.75;;;;;22.71;61.15;100155.44;5073294;28;54120;-74
2021/06/28 01:06:29;;;;;;;;;5.50;5.00;;;;;22.70;61.49;100145.78;5073695;28;54206;-74
2021/06/28 01:08:54;;;;;;;;;7.50;7.00;;;;;22.70;61.04;100143.94;5075848;28;46573;-73
2021/06/28 01:11:19;;;;;;;;;7.00;6.50;;;;;22.70;60.97;100135.13;5076764;28;45556;-75
2021/06/28 01:13:45;;;;;;;;;5.50;5.50;;;;;22.70;61.38;100143.94;5092398;27;48615;-74
2021/06/28 01:16:10;;;;;;;;;6.00;6.00;;;;;22.70;61.05;100129.78;5076620;28;58026;-75
2021/06/28 01:18:36;;;;;;;;;7.00;5.00;;;;;22.69;61.62;100117.47;5077316;28;45492;-74
2021/06/28 01:21:01;;;;;;;;;4.50;4.50;;;;;22.68;60.97;100113.94;5074985;28;46231;-74
2021/06/28 01:23:31;;;;;;;;;7.00;7.00;;;;;22.68;61.07;100105.97;5075564;28;45495;-74
2021/06/28 01:25:59;;;;;;;;;6.25;5.50;;;;;22.68;60.94;100103.31;5075694;28;45473;-75
2021/06/28 01:28:25;;;;;;;;;8.00;7.75;;;;;22.68;61.05;100103.31;5076015;28;45581;-75
2021/06/28 01:30:50;;;;;;;;;7.25;7.25;;;;;22.67;60.96;100101.63;5075369;28;45548;-75
2021/06/28 01:33:16;;;;;;;;;9.00;7.75;;;;;22.68;61.44;100126.41;5075300;28;45501;-76
2021/06/28 01:35:41;;;;;;;;;6.75;6.50;;;;;22.68;61.41;100115.78;5076511;28;45507;-75
2021/06/28 01:38:08;;;;;;;;;8.75;8.00;;;;;22.67;60.99;100119.41;5077262;28;45549;-75
2021/06/28 01:40:34;;;;;;;;;7.00;7.00;;;;;22.66;60.87;100144.34;5076099;28;45625;-74
2021/06/28 01:42:59;;;;;;;;;8.25;8.25;;;;;22.66;61.30;100158.50;5074481;28;45516;-74
2021/06/28 01:45:25;;;;;;;;;10.00;9.50;;;;;22.65;61.15;100167.44;5057352;28;45509;-74
2021/06/28 01:47:51;;;;;;;;;8.50;7.00;;;;;22.65;61.42;100167.44;5074640;28;45535;-73
2021/06/28 01:50:17;;;;;;;;;12.25;7.00;;;;;22.65;61.39;100153.28;5076493;28;45464;-74
2021/06/28 01:52:42;;;;;;;;;7.00;7.00;;;;;22.65;61.22;100163.94;5075676;28;45571;-75
2021/06/28 01:55:10;;;;;;;;;10.25;8.00;;;;;22.64;61.36;100165.75;5074422;28;45844;-76
2021/06/28 01:57:39;;;;;;;;;7.25;5.75;;;;;22.65;61.61;100170.13;5060159;28;45402;-76
2021/06/28 02:00:06;;;;;;;;;8.00;7.25;;;;;22.64;61.30;100165.75;5060416;28;45615;-76
2021/06/28 02:02:31;;;;;;;;;7.00;7.00;;;;;22.64;61.58;100151.59;5076750;28;45504;-75
2021/06/28 02:04:57;;;;;;;;;7.25;7.25;;;;;22.64;61.42;100149.78;5078311;28;45570;-76
2021/06/28 02:07:24;;;;;;;;;7.00;7.00;;;;;22.64;61.43;100155.13;5078640;28;45535;-77
2021/06/28 02:09:50;;;;;;;;;7.25;7.00;;;;;22.64;61.37;100157.78;5060411;28;47606;-77
2021/06/28 02:12:15;;;;;;;;;7.00;6.00;;;;;22.64;61.74;100163.09;5078300;28;45515;-76
2021/06/28 02:14:40;;;;;;;;;6.50;6.00;;;;;22.64;61.70;100164.91;5075300;28;52554;-75
2021/06/28 02:17:06;;;;;;;;;7.00;6.00;;;;;22.64;61.32;100165.75;5076250;28;45740;-75
2021/06/28 02:19:31;;;;;;;;;5.00;5.00;;;;;22.63;61.57;100164.06;5076498;28;46340;-74
2021/06/28 02:21:57;;;;;;;;;5.00;5.00;;;;;22.62;61.53;100170.38;5073113;28;54686;-74
2021/06/28 02:24:22;;;;;;;;;2.50;2.50;;;;;22.62;61.73;100148.22;5075617;28;45386;-75
2021/06/28 02:26:47;;;;;;;;;3.00;3.00;;;;;22.61;61.13;100147.38;5075726;28;45576;-75
2021/06/28 02:29:13;;;;;;;;;4.00;2.50;;;;;22.61;60.99;100143.88;5077537;28;46274;-75
2021/06/28 02:31:39;;;;;;;;;2.00;2.00;;;;;22.60;61.16;100155.50;5056669;28;45524;-75
2021/06/28 02:34:04;;;;;;;;;1.00;1.00;;;;;22.59;61.34;100148.47;5058865;28;45506;-74
2021/06/28 02:36:30;;;;;;;;;2.00;2.00;;;;;22.56;61.16;100134.47;5076912;28;45538;-74
2021/06/28 02:38:55;;;;;;;;;1.00;1.00;;;;;22.55;61.09;100127.41;5074300;28;45939;-74
2021/06/28 02:41:21;;;;;;;;;1.00;1.00;;;;;22.52;60.65;100125.00;5071672;28;45511;-74
2021/06/28 02:43:47;;;;;;;;;1.25;1.25;;;;;22.53;60.94;100141.81;5074770;28;45394;-75
2021/06/28 02:46:13;;;;;;;;;1.00;1.00;;;;;22.51;60.96;100160.56;5058727;28;45611;-75
2021/06/28 02:48:38;;;;;;;;;1.25;1.25;;;;;22.49;60.12;100161.66;5074397;28;46602;-75
2021/06/28 02:51:08;;;;;;;;;1.00;1.00;;;;;22.48;60.81;100175.94;5058627;28;45425;-74
2021/06/28 02:53:34;;;;;;;;;0.75;0.75;;;;;22.45;60.27;100170.88;5057959;28;45864;-75
2021/06/28 02:56:12;;;;;;;;;1.00;1.00;;;;;22.44;60.06;100177.19;5075564;28;45512;-74
2021/06/28 02:58:38;;;;;;;;;1.75;1.75;;;;;22.42;60.42;100192.41;5076490;28;46327;-76
2021/06/28 03:01:04;;;;;;;;;1.00;1.00;;;;;22.39;60.40;100196.19;5075523;28;45524;-74
2021/06/28 03:03:29;;;;;;;;;0.75;0.75;;;;;22.37;60.41;100189.28;5075280;28;45463;-74
2021/06/28 03:05:54;;;;;;;;;0.00;0.00;;;;;22.36;60.35;100192.91;5092399;27;45398;-74
2021/06/28 03:08:20;;;;;;;;;2.00;1.00;;;;;22.36;60.25;100179.63;5057891;28;47260;-74
2021/06/28 03:10:45;;;;;;;;;1.00;1.00;;;;;22.34;60.18;100170.88;5075520;28;45428;-74
2021/06/28 03:13:11;;;;;;;;;1.00;1.00;;;;;22.33;60.04;100166.53;5075973;28;45397;-74
2021/06/28 03:15:36;;;;;;;;;0.25;0.25;;;;;22.32;60.15;100167.50;5076359;28;45405;-76
2021/06/28 03:18:01;;;;;;;;;3.00;2.00;;;;;22.30;60.08;100164.97;5074919;28;47257;-74
2021/06/28 03:20:27;;;;;;;;;0.25;0.25;;;;;22.29;59.79;100165.09;5072703;28;58895;-75
2021/06/28 03:22:52;;;;;;;;;1.75;1.75;;;;;22.27;60.04;100150.09;5076255;28;45261;-74
2021/06/28 03:25:18;;;;;;;;;2.00;1.25;;;;;22.26;59.95;100135.09;5075360;28;45608;-75
2021/06/28 03:27:43;;;;;;;;;2.00;2.00;;;;;22.25;60.31;100135.22;5057714;28;45783;-76
2021/06/28 03:30:11;;;;;;;;;1.00;1.00;;;;;22.24;59.90;100129.06;5056835;28;46580;-76
2021/06/28 03:32:36;;;;;;;;;1.00;1.00;;;;;22.24;59.86;100120.25;5074993;28;45812;-75
2021/06/28 03:35:02;;;;;;;;;1.00;1.00;;;;;22.22;59.56;100115.03;5075773;28;48630;-76
2021/06/28 03:37:27;;;;;;;;;1.25;1.25;;;;;22.21;59.97;100121.34;5075041;27;51336;-75
2021/06/28 03:39:52;;;;;;;;;1.00;1.00;;;;;22.20;59.89;100132.09;5076691;28;45475;-76
2021/06/28 03:42:18;;;;;;;;;1.00;1.00;;;;;22.19;59.73;100125.94;5074581;28;45587;-76
2021/06/28 03:44:43;;;;;;;;;1.00;1.00;;;;;22.18;59.79;100128.72;5076257;28;45444;-74
2021/06/28 03:47:09;;;;;;;;;1.50;1.50;;;;;22.17;59.84;100133.19;5075471;28;46140;-74
2021/06/28 03:49:34;;;;;;;;;1.00;1.00;;;;;22.17;60.03;100132.34;5075907;28;45398;-73
2021/06/28 03:52:00;;;;;;;;;2.00;1.25;;;;;22.15;59.68;100129.81;5075885;28;45322;-74
2021/06/28 03:54:25;;;;;;;;;1.00;1.00;;;;;22.15;59.86;100128.97;5056777;28;45449;-74
2021/06/28 03:56:50;;;;;;;;;0.75;0.75;;;;;22.13;60.06;100134.41;5057413;28;47044;-74
2021/06/28 03:59:16;;;;;;;;;2.00;1.00;;;;;22.13;60.07;100137.09;5057213;28;45406;-74
2021/06/28 04:01:41;;;;;;;;;3.00;3.00;;;;;22.11;59.70;100146.97;5057916;28;45498;-76
2021/06/28 04:04:07;;;;;;;;;1.00;1.00;;;;;22.11;59.99;100149.63;5075180;28;45282;-74
2021/06/28 04:06:33;;;;;;;;;1.00;1.00;;;;;22.09;59.73;100138.25;5074568;28;46701;-75
2021/06/28 04:08:58;;;;;;;;;1.50;1.00;;;;;22.09;60.19;100140.94;5075753;27;45821;-76
2021/06/28 04:11:24;;;;;;;;;2.00;2.00;;;;;22.08;59.99;100149.03;5075560;28;45393;-75
2021/06/28 04:13:49;;;;;;;;;2.00;2.00;;;;;22.07;59.90;100150.00;5075355;28;45323;-75
2021/06/28 04:16:14;;;;;;;;;3.00;2.00;;;;;22.06;60.09;100146.50;5073702;28;46567;-74
2021/06/28 04:18:40;;;;;;;;;2.00;2.00;;;;;22.07;59.59;100155.31;5075285;27;45369;-75
2021/06/28 04:21:06;;;;;;;;;2.25;2.25;;;;;22.05;59.83;100157.25;5056720;28;46033;-75
2021/06/28 04:23:31;;;;;;;;;3.25;3.25;;;;;22.05;60.07;100152.78;5073759;28;45595;-74
2021/06/28 04:25:57;;;;;;;;;3.25;3.00;;;;;22.04;59.94;100156.41;5073247;28;48104;-74
2021/06/28 04:28:22;;;;;;;;;1.00;1.00;;;;;22.02;60.11;100146.84;5074244;28;57134;-75
2021/06/28 04:30:47;;;;;;;;;2.50;2.50;;;;;22.02;59.71;100145.03;5056989;28;45378;-74
2021/06/28 04:33:13;;;;;;;;;1.00;1.00;;;;;22.02;59.65;100157.47;5074438;28;45549;-75
2021/06/28 04:35:39;;;;;;;;;2.00;2.00;;;;;22.00;59.93;100154.09;5056247;28;47288;-75
2021/06/28 04:38:04;;;;;;;;;1.75;1.75;;;;;21.98;59.64;100154.22;5074666;27;49264;-73
2021/06/28 04:40:30;;;;;;;;;2.00;2.00;;;;;21.98;60.01;100154.22;5074235;28;58584;-73
2021/06/28 04:42:55;;;;;;;;;2.00;2.00;;;;;21.96;59.42;100154.34;5047679;28;45670;-73
2021/06/28 04:45:21;;;;;;;;;3.00;3.00;;;;;21.96;59.58;100156.16;5040521;28;46089;-73
2021/06/28 04:47:47;;;;;;;;;4.50;1.00;;;;;21.95;59.96;100154.47;5055932;28;45728;-74
2021/06/28 04:50:13;;;;;;;;;2.00;2.00;;;;;21.94;59.32;100158.09;5023328;28;45423;-74
2021/06/28 04:52:38;;;;;;;;;2.00;2.00;;;;;21.94;59.53;100176.69;5057362;28;45992;-73
2021/06/28 04:55:08;;;;;;;;;3.00;3.00;;;;;21.92;59.66;100184.78;5057305;28;46500;-73
2021/06/28 04:57:34;;;;;;;;;3.00;3.00;;;;;21.91;59.80;100182.25;5024299;28;45863;-75
2021/06/28 04:59:59;;;;;;;;;2.25;2.00;;;;;21.92;59.71;100183.94;5063868;28;45419;-75
2021/06/28 05:02:25;;;;;;;;;3.00;3.00;;;;;21.90;59.79;100180.53;5078986;28;45575;-75
2021/06/28 05:04:50;;;;;;;;;3.75;2.50;;;;;21.89;60.06;100197.47;5092598;27;47948;-76
2021/06/28 05:07:16;;;;;;;;;3.00;3.00;;;;;21.89;59.85;100194.81;5076207;28;45374;-75
2021/06/28 05:09:42;;;;;;;;;1.75;1.75;;;;;21.87;59.79;100189.59;5077602;28;45396;-75
2021/06/28 05:12:08;;;;;;;;;3.50;3.50;;;;;21.87;59.90;100196.72;5078085;28;45382;-74
2021/06/28 05:14:33;;;;;;;;;3.25;2.25;;;;;21.86;59.69;100201.22;5080062;27;45443;-75
2021/06/28 05:16:59;;;;;;;;;3.00;3.00;;;;;21.86;59.63;100190.56;5081357;28;56510;-75
2021/06/28 05:19:24;;;;;;;;;2.00;2.00;;;;;21.85;59.63;100204.00;5097437;27;45514;-75
2021/06/28 05:21:50;;;;;;;;;2.25;2.25;;;;;21.85;60.05;100209.31;5078429;28;45578;-75
2021/06/28 05:24:15;;;;;;;;;2.00;1.50;;;;;21.85;59.90;100194.19;5077523;28;46500;-76
2021/06/28 05:26:40;;;;;;;;;2.00;2.00;;;;;21.84;59.94;100205.81;5076140;28;45444;-76
2021/06/28 05:29:06;;;;;;;;;3.00;3.00;;;;;21.84;59.47;100191.66;5076508;27;45411;-75
2021/06/28 05:31:31;;;;;;;;;3.75;2.00;;;;;21.83;59.78;100203.25;5076557;28;45594;-76
2021/06/28 05:33:57;;;;;;;;;3.00;3.00;;;;;21.82;59.91;100204.22;5076991;28;46737;-75
2021/06/28 05:36:22;;;;;;;;;2.75;2.75;;;;;21.82;59.68;100199.75;5075923;28;61202;-73
2021/06/28 05:38:48;;;;;;;;;2.00;2.00;;;;;21.81;59.79;100203.38;5058286;28;45606;-74
2021/06/28 05:41:15;;;;;;;;;2.00;2.00;;;;;21.81;59.68;100215.81;5077431;28;45522;-74
2021/06/28 05:43:41;;;;;;;;;3.25;3.25;;;;;21.81;59.60;100199.88;5076270;27;46968;-74
2021/06/28 05:46:06;;;;;;;;;2.00;1.75;;;;;21.80;60.08;100198.19;5076451;28;59453;-73
2021/06/28 05:48:31;;;;;;;;;2.50;2.50;;;;;21.80;59.99;100192.88;5058591;28;45686;-73
2021/06/28 05:50:57;;;;;;;;;3.75;3.75;;;;;21.81;60.13;100178.63;5093528;27;45578;-74
2021/06/28 05:53:22;;;;;;;;;3.00;3.00;;;;;21.79;60.15;100167.25;5076516;28;46211;-74
2021/06/28 05:55:48;;;;;;;;;3.00;3.00;;;;;21.80;59.90;100169.78;5076548;28;45378;-74
2021/06/28 05:58:16;;;;;;;;;6.75;5.00;;;;;21.79;59.95;100165.44;5077467;28;45371;-75
2021/06/28 06:00:42;;;;;;;;;3.50;3.50;;;;;21.80;60.20;100164.47;5077233;27;45579;-75
2021/06/28 06:03:07;;;;;;;;;3.00;3.00;;;;;21.80;60.00;100166.28;5076207;28;46333;-74
2021/06/28 06:05:32;;;;;;;;;3.50;3.00;;;;;21.80;59.94;100160.97;5075764;28;45482;-74
2021/06/28 06:07:58;;;;;;;;;8.50;6.75;;;;;21.79;60.07;100161.94;5076927;28;45431;-75
2021/06/28 06:10:24;;;;;;;;;4.50;4.50;;;;;21.79;59.88;100162.78;5076486;28;45857;-76
2021/06/28 06:12:49;;;;;;;;;4.25;4.00;;;;;21.77;59.93;100169.19;5057937;28;46899;-73
2021/06/28 06:15:14;;;;;;;;;3.00;3.00;;;;;21.77;60.17;100178.00;5076062;28;45471;-74
2021/06/28 06:17:40;;;;;;;;;6.00;5.75;;;;;21.77;59.75;100188.66;5076101;28;60148;-75
2021/06/28 06:20:06;;;;;;;;;5.50;4.75;;;;;21.77;60.25;100193.13;5075578;28;45513;-75
2021/06/28 06:22:32;;;;;;;;;5.00;5.00;;;;;21.77;59.75;100187.78;5059095;28;46660;-76
2021/06/28 06:24:57;;;;;;;;;4.75;4.00;;;;;21.77;60.14;100195.78;5074458;28;45423;-74
2021/06/28 06:27:23;;;;;;;;;2.00;2.00;;;;;21.76;60.14;100202.06;5058275;28;55180;-74
2021/06/28 06:29:48;;;;;;;;;3.00;3.00;;;;;21.76;59.98;100215.34;5040519;28;53289;-74
2021/06/28 06:32:14;;;;;;;;;5.00;5.00;;;;;21.75;59.96;100227.78;5058851;28;48125;-74
2021/06/28 06:34:39;;;;;;;;;7.25;4.50;;;;;21.77;59.82;100231.19;5076139;28;45322;-75
2021/06/28 06:37:05;;;;;;;;;6.00;5.00;;;;;21.76;60.04;100231.28;5077014;28;45368;-74
2021/06/28 06:39:33;;;;;;;;;4.50;4.50;;;;;21.76;60.16;100231.28;5075399;28;45686;-74
2021/06/28 06:41:59;;;;;;;;;3.00;2.75;;;;;21.77;59.78;100240.97;5074388;28;45591;-75
2021/06/28 06:44:24;;;;;;;;;3.75;3.75;;;;;21.77;59.83;100249.78;5075050;28;45514;-75
2021/06/28 06:46:50;;;;;;;;;4.25;4.25;;;;;21.77;60.01;100235.66;5056929;28;53910;-74
2021/06/28 06:49:15;;;;;;;;;3.25;3.25;;;;;21.79;60.11;100233.72;5092489;27;45414;-75
2021/06/28 06:51:41;;;;;;;;;4.00;4.00;;;;;21.78;60.09;100229.38;5075650;28;46580;-76
2021/06/28 06:54:06;;;;;;;;;2.50;2.50;;;;;21.78;60.03;100234.69;5092185;27;45388;-76
2021/06/28 06:56:32;;;;;;;;;2.75;2.25;;;;;21.77;59.67;100227.66;5076891;27;45374;-75
2021/06/28 06:58:57;;;;;;;;;7.00;5.75;;;;;21.78;60.13;100230.22;5057527;28;45417;-76
2021/06/28 07:01:23;;;;;;;;;4.75;4.75;;;;;21.78;59.94;100237.34;5075588;28;45974;-75
2021/06/28 07:03:48;;;;;;;;;3.00;3.00;;;;;21.78;60.08;100237.34;5075319;28;45793;-74
2021/06/28 07:06:14;;;;;;;;;6.25;5.00;;;;;21.79;59.86;100239.88;5058382;28;45409;-75
2021/06/28 07:08:39;;;;;;;;;6.00;4.75;;;;;21.80;59.83;100236.25;5057663;28;45462;-75
2021/06/28 07:11:06;;;;;;;;;5.00;4.75;;;;;21.81;60.09;100227.31;5075901;28;45924;-75
2021/06/28 07:13:33;;;;;;;;;4.00;3.25;;;;;21.82;60.19;100231.66;5074707;28;45434;-75
2021/06/28 07:15:58;;;;;;;;;5.00;3.00;;;;;21.83;60.08;100235.16;5075341;28;45549;-74
2021/06/28 07:18:23;;;;;;;;;4.25;4.25;;;;;21.85;60.02;100244.72;5074819;28;45567;-75
2021/06/28 07:20:50;;;;;;;;;6.25;4.75;;;;;21.86;60.06;100245.56;5074755;28;46083;-74
2021/06/28 07:23:15;;;;;;;;;7.75;4.75;;;;;21.87;59.88;100239.28;5074741;28;45334;-73
2021/06/28 07:25:41;;;;;;;;;4.50;4.50;;;;;21.87;60.15;100244.59;5075792;28;45456;-74
2021/06/28 07:28:06;;;;;;;;;4.00;4.00;;;;;21.91;60.44;100246.91;5074989;28;45211;-75
2021/06/28 07:30:32;;;;;;;;;4.00;4.00;;;;;21.94;60.33;100240.53;5078352;27;46520;-75
2021/06/28 07:32:57;;;;;;;;;5.00;5.00;;;;;21.99;60.59;100254.28;5094878;27;45488;-73
2021/06/28 07:35:23;;;;;;;;;4.75;4.75;;;;;22.06;60.72;100254.69;5083657;27;45440;-73
2021/06/28 07:37:48;;;;;;;;;4.75;4.00;;;;;22.15;60.83;100252.19;5074078;27;45868;-74
2021/06/28 07:40:14;;;;;;;;;6.00;5.00;;;;;22.24;60.92;100251.44;5074030;28;47136;-74
2021/06/28 07:42:40;;;;;;;;;5.00;5.00;;;;;22.36;60.65;100254.13;5073074;28;45525;-74
2021/06/28 07:45:06;;;;;;;;;3.00;3.00;;;;;22.48;60.98;100255.78;5058052;28;45399;-75
2021/06/28 07:47:31;;;;;;;;;2.50;2.50;;;;;22.60;60.43;100257.50;5073739;27;45552;-75
2021/06/28 07:49:58;;;;;;;;;6.00;5.00;;;;;22.75;60.47;100263.38;5074483;27;45892;-75
2021/06/28 07:52:24;;;;;;;;;6.00;5.50;;;;;22.91;60.53;100271.00;5057390;28;45714;-76
2021/06/28 07:54:50;;;;;;;;;4.00;4.00;;;;;23.05;60.37;100265.44;5074672;27;45508;-75
2021/06/28 07:57:15;;;;;;;;;3.00;3.00;;;;;23.20;60.05;100272.13;5073904;28;45665;-75
2021/06/28 07:59:41;;;;;;;;;3.25;3.25;;;;;23.37;60.08;100270.75;5073664;27;57021;-75
2021/06/28 08:02:06;;;;;;;;;4.00;4.00;;;;;23.52;59.38;100269.47;5074672;28;45274;-80
2021/06/28 08:04:32;;;;;;;;;4.25;4.25;;;;;23.67;59.27;100260.22;5077883;28;45264;-78
2021/06/28 08:06:57;;;;;;;;;5.50;4.25;;;;;23.80;58.79;100259.19;5068276;27;45718;-79
2021/06/28 08:09:23;;;;;;;;;7.25;4.25;;;;;23.90;58.90;100255.63;5085765;27;46926;-77
2021/06/28 08:11:49;;;;;;;;;3.00;3.00;;;;;24.03;58.57;100250.06;5052075;28;45422;-78
2021/06/28 08:14:16;;;;;;;;;4.00;3.00;;;;;24.15;56.71;100253.50;5051166;28;45494;-79
2021/06/28 08:16:42;;;;;;;;;3.25;3.25;;;;;24.24;57.09;100258.03;5035219;28;45607;-81
2021/06/28 08:19:07;;;;;;;;;2.50;2.50;;;;;24.37;57.33;100259.53;5037245;28;48088;-78
2021/06/28 08:21:34;;;;;;;;;3.00;3.00;;;;;24.51;56.61;100250.31;5036391;28;45734;-80
2021/06/28 08:23:59;;;;;;;;;4.00;4.00;;;;;24.68;56.68;100257.66;5058784;28;45504;-80
2021/06/28 08:26:25;;;;;;;;;3.25;3.00;;;;;24.85;55.58;100258.84;5038730;28;45758;-80
2021/06/28 08:28:50;;;;;;;;;2.00;2.00;;;;;24.98;55.81;100247.91;5039555;28;46371;-82
2021/06/28 08:31:16;;;;;;;;;4.50;1.50;;;;;25.12;55.49;100242.16;5031115;28;45655;-80
2021/06/28 08:33:43;;;;;;;;;2.00;2.00;;;;;25.25;55.22;100250.75;5077344;28;45230;-79
2021/06/28 08:36:08;;;;;;;;;2.00;2.00;;;;;25.35;54.65;100245.41;5075799;28;45701;-80
2021/06/28 08:38:34;;;;;;;;;6.00;6.00;;;;;25.49;54.74;100253.00;5057842;28;45293;-81
2021/06/28 08:40:59;;;;;;;;;3.25;3.25;;;;;25.61;54.28;100256.41;5089951;27;45396;-80
2021/06/28 08:43:25;;;;;;;;;3.00;3.00;;;;;25.79;49.54;100252.00;5040599;28;45727;-76
2021/06/28 08:45:50;;;;;;;;;4.00;3.00;;;;;25.88;49.43;100253.00;5036718;28;45294;-74
2021/06/28 08:48:16;;;;;;;;;2.00;2.00;;;;;26.02;48.58;100249.00;5051588;28;46176;-75
2021/06/28 08:50:41;;;;;;;;;1.50;1.50;;;;;26.15;48.39;100252.22;5053007;28;45500;-74
2021/06/28 08:53:07;;;;;;;;;4.25;3.00;;;;;26.22;47.25;100255.13;5053577;28;45495;-77
2021/06/28 08:55:33;;;;;;;;;2.50;2.50;;;;;26.25;47.66;100245.00;5065733;28;45891;-79
2021/06/28 08:57:59;;;;;;;;;2.00;2.00;;;;;26.36;46.96;100249.34;5069152;27;46403;-76
2021/06/28 09:00:24;;;;;;;;;2.50;2.50;;;;;26.46;46.88;100247.47;5061818;28;45643;-74
2021/06/28 09:02:55;;;;;;;;;4.00;2.50;;;;;26.54;47.02;100246.75;5055181;28;46018;-75
2021/06/28 09:05:21;;;;;;;;;2.00;2.00;;;;;26.56;46.52;100242.91;5073003;28;45728;-75
2021/06/28 09:07:47;;;;;;;;;1.75;1.75;;;;;26.61;46.44;100239.78;5073424;28;46221;-76
2021/06/28 09:10:34;;;;;;;;;2.50;2.50;;;;;26.77;46.37;100245.34;5074690;27;45373;-76
2021/06/28 09:13:00;;;;;;;;;6.25;2.25;;;;;26.94;45.78;100252.56;5069301;28;45575;-75
2021/06/28 09:15:44;;;;;;;;;3.50;3.50;;;;;27.12;45.79;100243.75;5025942;28;45559;-76
2021/06/28 09:18:21;;;;;;;;;2.25;2.00;;;;;27.18;43.86;100259.19;5073934;28;45244;-75
2021/06/28 09:20:46;;;;;;;;;2.25;2.25;;;;;27.21;44.77;100258.91;5072546;28;45511;-75
2021/06/28 09:23:24;;;;;;;;;3.25;3.00;;;;;27.35;44.56;100266.41;5073877;28;45378;-76
2021/06/28 09:25:52;;;;;;;;;2.75;2.75;;;;;27.46;44.22;100268.84;5072789;28;45439;-77
2021/06/28 09:28:54;;;;;;;;;3.25;2.50;;;;;27.86;43.83;100267.53;5058593;28;46439;-77
2021/06/28 09:31:32;;;;;;;;;2.00;2.00;;;;;28.21;43.43;100267.44;5018363;28;45452;-76
2021/06/28 09:34:08;;;;;;;;;2.75;2.75;;;;;28.10;42.35;100267.69;5069711;28;45492;-76
2021/06/28 09:36:43;;;;;;;;;4.50;4.50;;;;;28.04;42.38;100270.16;5057461;28;45484;-76
2021/06/28 09:39:22;;;;;;;;;3.00;3.00;;;;;28.00;42.24;100272.34;5071735;28;45499;-76
2021/06/28 09:41:48;;;;;;;;;3.00;3.00;;;;;27.89;42.43;100277.94;5072882;27;45830;-77
2021/06/28 09:44:13;;;;;;;;;4.00;4.00;;;;;27.73;42.57;100291.22;5058519;28;45908;-73
2021/06/28 09:46:39;;;;;;;;;3.00;3.00;;;;;27.58;43.36;100281.03;5058463;28;45859;-72
2021/06/28 09:49:05;;;;;;;;;1.25;1.25;;;;;27.54;42.22;100289.53;5058804;28;46398;-74
2021/06/28 09:51:35;;;;;;;;;2.00;2.00;;;;;27.38;42.07;100284.88;5059332;28;45497;-74
2021/06/28 09:54:07;;;;;;;;;1.25;1.25;;;;;27.18;41.76;100286.84;5072501;27;45497;-73
2021/06/28 09:56:34;;;;;;;;;1.00;1.00;;;;;27.03;42.62;100283.84;5061411;27;45350;-72
2021/06/28 09:59:35;;;;;;;;;3.75;2.00;;;;;26.95;42.67;100289.09;5055698;28;48038;-73
2021/06/28 10:02:35;;;;;;;;;4.75;4.75;;;;;26.88;43.02;100293.34;5056805;28;45472;-71
2021/06/28 10:07:28;;;;;;;;;2.00;2.00;;;;;26.59;43.40;100296.19;5058697;28;45295;-74
2021/06/28 10:10:24;;;;;;;;;3.75;2.50;;;;;26.44;43.66;100292.28;5056597;28;46182;-74
2021/06/28 10:12:52;;;;;;;;;1.75;1.50;;;;;26.41;43.72;100301.47;5054952;28;45410;-71
2021/06/28 10:15:20;;;;;;;;;3.25;3.00;;;;;26.64;43.32;100303.78;5064078;28;45546;-74
2021/06/28 10:17:46;;;;;;;;;1.25;1.25;;;;;26.99;42.05;100295.88;5086393;27;45529;-75
2021/06/28 10:20:14;;;;;;;;;2.50;2.00;;;;;27.12;41.50;100300.03;5083146;27;46860;-74
2021/06/28 10:22:40;;;;;;;;;1.25;1.25;;;;;27.10;41.72;100297.47;5054749;27;45255;-73
2021/06/28 10:25:06;;;;;;;;;2.50;1.50;;;;;27.17;41.77;100301.25;5070735;27;45932;-71
2021/06/28 10:27:33;;;;;;;;;1.00;1.00;;;;;27.24;41.85;100293.44;5089400;27;45456;-72
2021/06/28 10:30:00;;;;;;;;;3.00;3.00;;;;;27.19;40.38;100303.78;5061465;28;47199;-72
2021/06/28 10:32:27;;;;;;;;;2.00;2.00;;;;;27.45;41.90;100304.72;5069656;27;45551;-73
2021/06/28 10:34:53;;;;;;;;;2.00;2.00;;;;;27.78;40.93;100305.91;5037513;27;45704;-72
2021/06/28 10:37:40;;;;;;;;;3.75;3.75;;;;;28.87;39.21;100299.03;5075242;27;45869;-72
2021/06/28 10:40:12;;;;;;;;;3.25;2.50;;;;;30.20;35.98;100287.22;5068777;28;45556;-73
2021/06/28 10:43:04;;;;;;;;;2.00;2.00;;;;;31.37;36.81;100286.38;5074176;27;45502;-73
2021/06/28 10:45:38;;;;;;;;;2.00;2.00;;;;;31.14;35.97;100286.34;5068760;27;45558;-75
2021/06/28 10:48:10;;;;;;;;;3.00;3.00;;;;;30.62;36.71;100283.41;5073827;27;45505;-74
2021/06/28 10:51:02;;;;;;;;;2.50;2.50;;;;;30.19;36.49;100288.25;5074390;27;45652;-73
2021/06/28 10:53:33;;;;;;;;;6.50;4.25;;;;;29.58;37.12;100281.53;5069756;28;45866;-74
2021/06/28 10:56:26;;;;;;;;;3.75;3.50;;;;;28.95;37.93;100281.22;5074964;27;45560;-73
2021/06/28 10:59:15;;;;;;;;;3.25;3.25;;;;;28.46;38.82;100281.03;5073817;27;45515;-72
2021/06/28 11:01:43;;;;;;;;;5.00;3.75;;;;;28.27;39.39;100279.41;5050735;27;45567;-71
2021/06/28 11:04:10;;;;;;;;;2.25;2.25;;;;;28.16;39.00;100285.84;5082450;27;45842;-72
2021/06/28 11:06:35;;;;;;;;;2.00;2.00;;;;;27.88;39.32;100273.56;5071932;28;45460;-72
2021/06/28 11:09:01;;;;;;;;;2.25;2.25;;;;;27.62;39.80;100277.06;5050609;28;45956;-73
2021/06/28 11:11:46;;;;;;;;;2.00;2.00;;;;;27.39;40.22;100286.56;5070123;28;45539;-73
2021/06/28 11:14:17;;;;;;;;;3.00;3.00;;;;;27.17;40.65;100269.09;5056775;28;45433;-72
2021/06/28 11:17:06;;;;;;;;;1.25;1.25;;;;;27.19;40.62;100268.94;5063681;27;45561;-72
2021/06/28 11:19:58;;;;;;;;;2.00;2.00;;;;;27.22;40.86;100265.94;5069068;28;45735;-72
2021/06/28 11:22:27;;;;;;;;;2.00;2.00;;;;;27.27;40.94;100274.38;5062437;28;45311;-72
2021/06/28 11:25:19;;;;;;;;;1.25;1.25;;;;;27.41;40.83;100268.47;5061254;28;45431;-72
2021/06/28 11:28:08;;;;;;;;;1.75;1.75;;;;;27.46;40.48;100273.38;5056570;28;45398;-72
2021/06/28 11:30:35;;;;;;;;;3.00;3.00;;;;;27.25;41.28;100273.69;5072112;27;45421;-72